CEN3 weather

Three Hills Airport
Three Hills, Alberta, Canada

Public forecast

Using degrees Celsius for public forecast. Weather courtesy of forecast.io.

METAR (pilot weather report)

Closest report is Red Deer Regional Airport, 38.6 nm (71.5 km) NW. Retrieved 2019/07/21 04:00 UTC (10 minutes ago):

CYQF 210400Z 21002KT 12SM FEW030 SCT250 13/12 A3016 RMK CU2CI1 SLP227 DENSITY ALT 3200FT

TAF (pilot weather forecast)

Forecast is more than 12 hours old.

Closest forecast is Red Deer Regional Airport, 38.6 nm (71.5 km) NW. Retrieved 2019/07/20 00:39 UTC (1 day ago):

TAF CYQF 202338Z 2100/2112 VRB03KT P6SM SCT020 BKN030 TEMPO 2100/2102 5SM -SHRA VCTS OVC020CB FM210200 VRB03KT P6SM VCSH BKN040 FM211000 VRB03KT P6SM SCT040 PROB30 2110/2112 1/2SM FG RMK NXT FCST BY 210600Z